Nordborg, Denmark
Current Conditions -  °F | °C
As of 4:50 PM on Saturday 20 Dec 2014 (Local Time) from EKSB Reporting Station
Rain Showers Rain Showers  
Wind Chill:   Ceiling: Unl
Heat Index:   Visibility: 6mi
Dew Point:   Wind: 22mph
Humidity: 76%   Direction: 280°W
Pressure: 29.59"   Gusts: 33mph
Location:  55.06°N, 9.74°E
Report Text: EKSB 201550Z 28019G29KT 9999 -SHRA FEW020CB 05/01 Q1002
Loading
Personal Weather Stations






























Interactive Weather Map New forecast layout! Learn more

10-Day Weather Forecast

Advertisements
Track Severe Weather on mobile